Terminal Aerodrome Forecast
Issued by NWS Nashville, TN

Home | Current Version | Previous Version | Text Only | Print | Product List | Glossary On
Versions: 1 2 3 4 5 6 7 8 9 10 11 12 13 14 15 16 17 18 19 20 21 22
000
FTUS44 KOHX 290800 AAB
TAFCSV
TAF AMD
KCSV 290802Z 2908/3006 04004KT P6SM OVC003
      TEMPO 2908/2910 2SM -RA BR
     FM291000 36004KT 1SM BR OVC002
      TEMPO 2910/2914 -RA
     FM291400 36004KT 3SM BR VCSH OVC006
      TEMPO 2914/2917 -DZ
     FM291700 35005KT P6SM OVC020=

USA.gov is the U.S. government's official web portal to all federal, state and local government web resources and services.